createdAt,value
2023-02-03T05:41:58.436Z,2.12
2023-02-03T05:45:01.363Z,2.12
2023-02-03T05:48:05.432Z,1.58
2023-02-03T05:51:07.924Z,1.53
2023-02-03T05:54:10.617Z,1.33
2023-02-03T05:57:13.638Z,1.33
2023-02-03T06:00:16.533Z,1.53
2023-02-03T06:03:22.223Z,1.45
2023-02-03T06:06:24.864Z,1.53
2023-02-03T06:09:27.396Z,1.69
2023-02-03T06:12:29.869Z,1.56
2023-02-03T06:15:32.437Z,1.62
2023-02-03T06:18:34.977Z,1.70
2023-02-03T06:21:37.452Z,1.63
2023-02-03T06:24:40.012Z,1.74
2023-02-03T06:27:42.661Z,1.63
2023-02-03T06:30:45.441Z,1.88
2023-02-03T06:33:48.085Z,1.65
2023-02-03T06:36:50.615Z,1.82
2023-02-03T06:39:53.108Z,1.59
2023-02-03T06:42:55.851Z,1.57
2023-02-03T06:45:58.498Z,1.77
2023-02-03T06:49:01.154Z,1.63
2023-02-03T06:52:03.833Z,1.68
2023-02-03T06:55:06.843Z,1.71
2023-02-03T06:58:09.359Z,1.72
2023-02-03T07:01:11.983Z,1.89
2023-02-03T07:04:14.520Z,1.74
2023-02-03T07:07:17.216Z,1.98
2023-02-03T07:10:19.901Z,1.90
2023-02-03T07:13:22.459Z,1.83
2023-02-03T07:16:25.053Z,1.93
2023-02-03T07:19:27.610Z,1.98
2023-02-03T07:22:30.140Z,2.09
2023-02-03T07:25:32.696Z,2.00
2023-02-03T07:28:35.456Z,2.10
2023-02-03T07:31:38.577Z,2.12
2023-02-03T07:34:41.286Z,2.17
2023-02-03T07:37:43.895Z,2.22
2023-02-03T07:40:46.466Z,2.25
2023-02-03T07:43:49.022Z,2.40
2023-02-03T07:46:51.561Z,2.42
2023-02-03T07:49:54.195Z,2.47
2023-02-03T07:52:56.774Z,2.50
2023-02-03T07:56:03.169Z,2.47
2023-02-03T07:59:05.731Z,2.41
2023-02-03T08:02:11.390Z,2.49
2023-02-03T08:05:14.191Z,2.41
2023-02-03T08:08:16.936Z,2.22
2023-02-03T08:11:19.746Z,2.18
2023-02-03T08:14:22.442Z,2.26
2023-02-03T08:17:25.059Z,2.23
2023-02-03T08:20:27.939Z,2.10
2023-02-03T08:23:31.112Z,2.19
2023-02-03T08:26:34.160Z,2.32
2023-02-03T08:29:36.726Z,2.08
2023-02-03T08:32:39.312Z,2.38
2023-02-03T08:35:44.991Z,2.24
2023-02-03T08:38:47.562Z,2.40
2023-02-03T08:41:50.110Z,2.41
2023-02-03T08:44:53.064Z,2.39
2023-02-03T08:47:55.580Z,2.45
2023-02-03T08:50:58.247Z,2.60
2023-02-03T08:54:00.851Z,2.72
2023-02-03T08:57:03.516Z,2.71
2023-02-03T09:00:06.656Z,2.63
2023-02-03T09:03:09.314Z,2.66
2023-02-03T09:06:13.325Z,2.62
2023-02-03T09:09:15.929Z,2.73
2023-02-03T09:12:18.583Z,2.71
2023-02-03T09:15:21.130Z,2.61
2023-02-03T09:18:23.632Z,2.60
2023-02-03T09:21:34.052Z,2.53
2023-02-03T09:24:43.905Z,2.69
2023-02-03T09:27:46.596Z,2.71
2023-02-03T09:30:49.225Z,2.58
2023-02-03T09:33:51.804Z,2.49
2023-02-03T09:36:54.427Z,2.09
2023-02-03T09:39:58.902Z,1.93
2023-02-03T09:43:24.739Z,1.23
2023-02-03T09:46:28.856Z,1.65
2023-02-03T09:49:52.555Z,1.58
2023-02-03T09:52:55.127Z,1.68
2023-02-03T09:55:57.728Z,1.66
2023-02-03T09:59:01.412Z,1.51
2023-02-03T10:02:10.244Z,1.56
2023-02-03T10:05:31.969Z,1.66
2023-02-03T10:08:53.282Z,1.77
2023-02-03T10:11:59.031Z,1.75
2023-02-03T10:15:19.893Z,1.92
2023-02-03T10:18:28.965Z,1.85
2023-02-03T10:21:42.314Z,2.04
2023-02-03T10:25:02.998Z,1.96
2023-02-03T10:28:11.225Z,1.80
2023-02-03T10:31:18.038Z,2.02
2023-02-03T10:34:20.771Z,1.92
2023-02-03T10:37:31.156Z,2.07
2023-02-03T10:40:33.804Z,2.02
2023-02-03T10:43:48.728Z,1.88
2023-02-03T10:46:51.311Z,2.01
2023-02-03T10:49:55.528Z,1.88
2023-02-03T10:53:26.721Z,2.12
2023-02-03T10:56:35.595Z,2.03
2023-02-03T10:59:43.775Z,2.16
2023-02-03T11:02:46.410Z,2.26
2023-02-03T11:06:13.445Z,2.34
2023-02-03T11:09:40.283Z,2.30
2023-02-03T11:12:42.815Z,2.46
2023-02-03T11:15:58.271Z,2.49
2023-02-03T11:19:11.551Z,2.64
2023-02-03T11:22:37.336Z,2.44
2023-02-03T11:25:40.007Z,2.66
2023-02-03T11:28:43.631Z,2.56
2023-02-03T11:31:50.539Z,2.50
2023-02-03T11:35:02.511Z,2.53
2023-02-03T11:38:05.096Z,2.37
2023-02-03T11:41:16.360Z,2.31
2023-02-03T11:44:29.317Z,2.37
2023-02-03T11:47:31.814Z,2.54
2023-02-03T11:50:49.575Z,2.43
2023-02-03T11:54:19.489Z,2.45
2023-02-03T11:57:22.057Z,2.34
2023-02-03T12:00:31.591Z,2.34
2023-02-03T12:04:02.351Z,2.19
2023-02-03T12:07:31.587Z,2.30
2023-02-03T12:10:56.959Z,2.46
2023-02-03T12:14:24.346Z,2.27
2023-02-03T12:17:33.612Z,2.22
2023-02-03T12:20:40.723Z,2.24
2023-02-03T12:24:04.403Z,2.09
2023-02-03T12:27:27.117Z,2.35
2023-02-03T12:30:33.260Z,2.19
2023-02-03T12:33:40.634Z,2.05
2023-02-03T12:36:48.089Z,2.06
2023-02-03T12:40:21.801Z,2.16
2023-02-03T12:43:33.637Z,2.30
2023-02-03T12:46:50.158Z,2.33
2023-02-03T12:50:01.163Z,2.15
2023-02-03T12:53:12.404Z,2.30
2023-02-03T12:56:17.075Z,2.30
2023-02-03T12:59:23.066Z,2.34
2023-02-03T13:02:35.479Z,2.34
2023-02-03T13:05:47.431Z,2.15
2023-02-03T13:09:21.314Z,2.46
2023-02-03T13:12:47.646Z,2.27
2023-02-03T13:15:52.831Z,2.52
2023-02-03T13:18:59.851Z,2.27
2023-02-03T13:22:02.662Z,2.11
2023-02-03T13:25:28.952Z,2.00
2023-02-03T13:29:08.405Z,2.07
2023-02-03T13:32:26.303Z,1.99
2023-02-03T13:36:10.627Z,1.92
2023-02-03T13:39:38.111Z,2.09
2023-02-03T13:42:46.807Z,2.01
2023-02-03T13:45:50.818Z,2.00
2023-02-03T13:48:53.555Z,1.88
2023-02-03T13:51:56.220Z,1.91
2023-02-03T13:54:58.816Z,2.10
2023-02-03T13:58:01.601Z,2.12
2023-02-03T14:01:37.233Z,2.00
2023-02-03T14:04:45.703Z,1.95
2023-02-03T14:07:48.339Z,2.17
2023-02-03T14:11:29.137Z,2.22
2023-02-03T14:14:34.940Z,2.31
2023-02-03T14:17:43.473Z,2.33
2023-02-03T14:20:49.026Z,2.55
2023-02-03T14:23:55.774Z,2.64
2023-02-03T14:26:58.329Z,2.69
2023-02-03T14:30:09.087Z,2.68
2023-02-03T14:33:11.674Z,2.61
2023-02-03T14:36:38.080Z,2.54
2023-02-03T14:40:07.483Z,2.72
2023-02-03T14:43:19.575Z,2.62
2023-02-03T14:46:53.627Z,2.91
2023-02-03T14:49:59.352Z,2.56
2023-02-03T14:53:01.773Z,2.60
2023-02-03T14:56:07.101Z,2.63
2023-02-03T14:59:09.488Z,2.70
2023-02-03T15:02:15.165Z,3.02
2023-02-03T15:05:17.922Z,2.81
2023-02-03T15:08:34.220Z,2.81
2023-02-03T15:11:46.938Z,2.86
2023-02-03T15:14:49.456Z,2.97
2023-02-03T15:17:53.749Z,3.03
2023-02-03T15:20:56.404Z,3.09
2023-02-03T15:23:58.939Z,3.00
2023-02-03T15:27:01.457Z,3.04
2023-02-03T15:30:25.419Z,3.16
2023-02-03T15:33:27.964Z,3.25
2023-02-03T15:36:44.653Z,3.43
2023-02-03T15:39:59.435Z,3.39
2023-02-03T15:43:04.551Z,3.35
2023-02-03T15:46:13.266Z,3.45
2023-02-03T15:49:25.560Z,3.45
2023-02-03T15:52:28.194Z,3.61
2023-02-03T15:55:43.869Z,3.48
2023-02-03T15:58:47.156Z,3.62
2023-02-03T16:01:49.819Z,3.50
2023-02-03T16:04:52.465Z,3.61
2023-02-03T16:07:55.127Z,3.31
2023-02-03T16:10:57.663Z,3.24
2023-02-03T16:14:07.198Z,3.44
2023-02-03T16:17:34.754Z,3.24
2023-02-03T16:20:37.659Z,3.41
2023-02-03T16:23:40.194Z,3.23
2023-02-03T16:26:42.686Z,3.40
2023-02-03T16:30:03.960Z,3.59
2023-02-03T16:33:28.331Z,3.38
2023-02-03T16:36:49.759Z,3.55
2023-02-03T16:40:10.927Z,3.54
2023-02-03T16:43:33.266Z,3.63
2023-02-03T16:46:54.477Z,3.64
2023-02-03T16:50:15.431Z,3.42
2023-02-03T16:53:20.316Z,3.41
